Time;durP1;ratioP1;P1;durP2;ratioP2;P2;SDS_P1;SDS_P2;PMS_P1;PMS_P2;Temp;Humidity;BMP_temperature;BMP_pressure;BME280_temperature;BME280_humidity;BME280_pressure;Samples;Min_cycle;Max_cycle;Signal;HPM_P1;HPM_P2
2022/10/24 00:01:19;;;;;;;4.13;1.45;;;14.20;99.90;;;;;;5092095;28;20628;-69
2022/10/24 00:03:45;;;;;;;6.63;1.80;;;14.20;99.90;;;;;;5067352;28;20162;-69
2022/10/24 00:06:12;;;;;;;4.80;1.30;;;14.30;99.90;;;;;;5056067;28;20103;-69
2022/10/24 00:08:39;;;;;;;1.52;1.15;;;14.20;99.90;;;;;;5052828;28;20375;-69
2022/10/24 00:11:11;;;;;;;6.38;1.50;;;14.30;99.90;;;;;;5063712;28;20160;-69
2022/10/24 00:13:37;;;;;;;5.35;1.60;;;14.30;99.90;;;;;;5045853;28;20068;-69
2022/10/24 00:16:03;;;;;;;6.00;1.23;;;14.40;99.90;;;;;;5079515;28;20053;-71
2022/10/24 00:18:28;;;;;;;9.77;1.77;;;14.40;99.90;;;;;;5052944;28;20047;-69
2022/10/24 00:20:54;;;;;;;8.30;1.40;;;14.40;99.90;;;;;;5083701;28;20047;-69
2022/10/24 00:23:20;;;;;;;8.02;1.63;;;14.40;99.90;;;;;;5077426;28;20504;-70
2022/10/24 00:25:46;;;;;;;8.27;2.00;;;14.40;99.90;;;;;;5099986;28;20044;-69
2022/10/24 00:28:12;;;;;;;8.88;1.45;;;14.40;99.90;;;;;;5067162;28;20044;-69
2022/10/24 00:30:37;;;;;;;3.42;1.45;;;14.30;99.90;;;;;;5066642;28;20458;-69
2022/10/24 00:33:03;;;;;;;4.53;2.00;;;14.30;99.90;;;;;;5078480;28;20036;-69
2022/10/24 00:35:29;;;;;;;7.35;1.33;;;14.30;99.90;;;;;;5065732;28;20044;-69
2022/10/24 00:37:55;;;;;;;5.68;1.67;;;14.30;99.90;;;;;;5067198;28;20552;-69
2022/10/24 00:40:21;;;;;;;5.13;1.50;;;14.30;99.90;;;;;;5097774;28;20488;-69
2022/10/24 00:42:48;;;;;;;6.57;1.33;;;14.20;99.90;;;;;;5067348;28;20040;-69
2022/10/24 00:45:38;;;;;;;5.82;1.20;;;14.20;99.90;;;;;;5066006;28;20052;-68
2022/10/24 00:48:17;;;;;;;6.97;1.35;;;14.20;99.90;;;;;;5064931;28;20402;-69
2022/10/24 00:50:45;;;;;;;10.55;1.42;;;14.10;99.90;;;;;;5065795;28;20045;-69
2022/10/24 00:53:12;;;;;;;6.85;1.40;;;14.10;99.90;;;;;;5064765;28;20186;-69
2022/10/24 00:55:38;;;;;;;16.13;1.52;;;14.00;99.90;;;;;;5065861;28;20036;-69
2022/10/24 00:58:05;;;;;;;4.07;1.10;;;13.90;99.90;;;;;;5065346;28;20052;-69
2022/10/24 01:00:33;;;;;;;5.75;1.58;;;13.90;99.90;;;;;;5066482;28;20438;-69
2022/10/24 01:02:59;;;;;;;5.63;1.42;;;13.80;99.90;;;;;;5066495;28;20394;-68
2022/10/24 01:05:36;;;;;;;8.90;1.77;;;13.90;99.90;;;;;;5094582;28;20048;-69
2022/10/24 01:08:28;;;;;;;8.30;1.50;;;13.80;99.90;;;;;;5099483;28;20483;-68
2022/10/24 01:11:09;;;;;;;3.38;1.33;;;13.80;99.90;;;;;;5064756;28;20072;-69
2022/10/24 01:14:13;;;;;;;1.63;1.30;;;13.70;99.90;;;;;;5065488;28;20051;-69
2022/10/24 01:16:53;;;;;;;6.38;1.40;;;13.70;99.90;;;;;;5039343;28;20056;-69
2022/10/24 01:19:56;;;;;;;10.25;1.80;;;13.70;99.90;;;;;;5063407;28;20143;-68
2022/10/24 01:22:29;;;;;;;4.55;1.50;;;13.70;99.90;;;;;;5065167;28;20139;-68
2022/10/24 01:25:14;;;;;;;5.03;1.45;;;13.60;99.90;;;;;;5096291;28;20209;-68
2022/10/24 01:28:04;;;;;;;7.28;1.80;;;13.60;99.90;;;;;;5064977;28;20486;-69
2022/10/24 01:30:39;;;;;;;13.27;1.70;;;13.60;99.90;;;;;;5066871;28;20044;-68
2022/10/24 01:33:07;;;;;;;7.18;1.60;;;13.50;99.90;;;;;;5094251;28;20041;-68
2022/10/24 01:35:42;;;;;;;5.63;1.50;;;13.50;99.90;;;;;;5055794;28;20067;-69
2022/10/24 01:38:53;;;;;;;3.55;1.30;;;13.40;99.90;;;;;;5067625;28;20051;-68
2022/10/24 01:41:22;;;;;;;4.90;1.38;;;13.40;99.90;;;;;;5097402;28;20139;-68
2022/10/24 01:44:10;;;;;;;4.43;1.20;;;13.40;99.90;;;;;;5067076;28;20040;-68
2022/10/24 01:46:56;;;;;;;8.27;1.17;;;13.40;99.90;;;;;;5068111;28;20033;-68
2022/10/24 01:49:28;;;;;;;2.92;1.10;;;13.40;99.90;;;;;;5096905;28;20512;-68
2022/10/24 01:51:58;;;;;;;3.35;1.10;;;13.40;99.90;;;;;;5066398;28;20521;-69
2022/10/24 01:54:24;;;;;;;8.82;1.52;;;13.40;99.90;;;;;;5097950;28;20483;-68
2022/10/24 01:56:50;;;;;;;5.43;1.25;;;13.40;99.90;;;;;;5099465;28;20052;-69
2022/10/24 01:59:28;;;;;;;4.75;1.20;;;13.50;99.90;;;;;;5064236;28;20055;-69
2022/10/24 02:02:01;;;;;;;3.30;1.30;;;13.50;99.90;;;;;;5071947;28;20154;-69
2022/10/24 02:04:31;;;;;;;6.20;1.42;;;13.60;99.90;;;;;;5066408;28;20577;-69
2022/10/24 02:07:01;;;;;;;10.55;1.30;;;13.70;99.90;;;;;;5064133;28;20093;-69
2022/10/24 02:09:29;;;;;;;7.60;1.60;;;13.80;99.90;;;;;;5099006;28;20137;-69
2022/10/24 02:11:57;;;;;;;10.93;1.40;;;13.80;99.90;;;;;;5064164;28;20053;-68
2022/10/24 02:14:32;;;;;;;4.28;1.55;;;13.80;99.90;;;;;;5088220;28;20494;-69
2022/10/24 02:16:59;;;;;;;4.40;1.05;;;13.90;99.90;;;;;;5064681;28;20059;-68
2022/10/24 02:19:25;;;;;;;7.38;1.48;;;14.00;99.90;;;;;;5096688;28;20075;-69
2022/10/24 02:22:05;;;;;;;8.02;1.25;;;14.00;99.90;;;;;;5066082;28;20041;-69
2022/10/24 02:24:34;;;;;;;13.98;1.73;;;14.00;99.90;;;;;;5096165;28;20045;-69
2022/10/24 02:27:15;;;;;;;5.55;1.42;;;14.10;99.90;;;;;;5098344;28;20572;-69
2022/10/24 02:29:59;;;;;;;8.13;1.77;;;14.10;99.90;;;;;;5098972;28;20436;-69
2022/10/24 02:32:29;;;;;;;9.48;1.35;;;14.20;99.90;;;;;;5096221;28;20044;-69
2022/10/24 02:34:56;;;;;;;6.25;1.17;;;14.30;99.90;;;;;;5085003;28;20494;-70
2022/10/24 02:37:24;;;;;;;11.77;1.60;;;14.30;99.90;;;;;;5062630;28;20044;-69
2022/10/24 02:39:51;;;;;;;14.15;2.05;;;14.40;99.90;;;;;;5098500;28;20041;-70
2022/10/24 02:42:18;;;;;;;5.75;1.65;;;14.40;99.90;;;;;;5096326;28;20467;-69
2022/10/24 02:44:46;;;;;;;5.18;1.55;;;14.50;99.90;;;;;;5050808;28;20073;-69
2022/10/24 02:47:14;;;;;;;5.10;1.80;;;14.50;99.90;;;;;;5100248;28;20051;-69
2022/10/24 02:49:40;;;;;;;11.82;2.03;;;14.50;99.90;;;;;;5067328;28;20042;-70
2022/10/24 02:52:06;;;;;;;4.63;1.63;;;14.60;99.90;;;;;;5095047;28;20052;-69
2022/10/24 02:54:32;;;;;;;25.55;2.20;;;14.60;99.90;;;;;;5060007;28;20098;-69
2022/10/24 02:57:01;;;;;;;15.48;4.00;;;14.60;99.90;;;;;;5101991;28;20129;-69
2022/10/24 02:59:27;;;;;;;6.95;1.60;;;14.60;99.90;;;;;;5083601;28;20052;-69
2022/10/24 03:01:53;;;;;;;15.00;1.75;;;14.70;99.90;;;;;;5100701;28;20032;-69
2022/10/24 03:04:19;;;;;;;5.32;1.77;;;14.70;99.90;;;;;;5099896;28;20059;-69
2022/10/24 03:06:45;;;;;;;13.60;2.35;;;14.70;99.90;;;;;;5100572;28;20056;-69
2022/10/24 03:09:10;;;;;;;9.70;2.20;;;14.70;99.90;;;;;;5102859;28;20520;-71
2022/10/24 03:11:36;;;;;;;6.72;1.75;;;14.60;99.90;;;;;;5068342;28;20037;-70
2022/10/24 03:14:02;;;;;;;7.45;1.95;;;14.60;99.90;;;;;;5101174;28;20056;-69
2022/10/24 03:16:28;;;;;;;4.35;1.67;;;14.70;99.90;;;;;;5068302;28;20537;-69
2022/10/24 03:18:54;;;;;;;5.65;2.25;;;14.70;99.90;;;;;;5102038;28;20045;-69
2022/10/24 03:21:20;;;;;;;3.55;1.95;;;14.70;99.90;;;;;;5067831;28;20047;-69
2022/10/24 03:23:46;;;;;;;9.95;2.40;;;14.70;99.90;;;;;;5092801;28;20112;-69
2022/10/24 03:26:12;;;;;;;10.07;2.22;;;14.60;99.90;;;;;;5083905;28;20119;-69
2022/10/24 03:28:38;;;;;;;9.70;1.60;;;14.60;99.90;;;;;;5082403;28;20056;-69
2022/10/24 03:31:04;;;;;;;8.15;1.85;;;14.50;99.90;;;;;;5067282;28;20066;-69
2022/10/24 03:33:30;;;;;;;12.25;2.58;;;14.50;99.90;;;;;;5082706;28;20048;-69
2022/10/24 03:35:56;;;;;;;5.43;1.45;;;14.50;99.90;;;;;;5068721;28;20051;-69
2022/10/24 03:38:23;;;;;;;6.65;1.60;;;14.50;99.90;;;;;;5065353;28;20568;-68
2022/10/24 03:40:49;;;;;;;8.48;2.00;;;14.50;99.90;;;;;;5099987;28;20056;-69
2022/10/24 03:43:15;;;;;;;8.27;2.10;;;14.50;99.90;;;;;;5100559;28;20148;-69
2022/10/24 03:45:41;;;;;;;5.75;1.52;;;14.50;99.90;;;;;;5068261;28;20036;-69
2022/10/24 03:48:06;;;;;;;12.55;1.95;;;14.50;99.90;;;;;;5100496;28;20356;-69
2022/10/24 03:50:33;;;;;;;15.48;1.77;;;14.50;99.90;;;;;;5066751;28;20084;-69
2022/10/24 03:52:59;;;;;;;4.03;1.60;;;14.50;99.90;;;;;;5100941;28;20407;-69
2022/10/24 03:55:25;;;;;;;7.72;1.48;;;14.50;99.90;;;;;;5072881;28;20115;-69
2022/10/24 03:57:51;;;;;;;2.97;1.67;;;14.50;99.90;;;;;;5074655;28;20098;-69
2022/10/24 04:00:18;;;;;;;7.20;1.65;;;14.50;99.90;;;;;;5098580;28;20041;-69
2022/10/24 04:02:44;;;;;;;8.48;1.80;;;14.50;99.90;;;;;;5099832;28;20223;-69
2022/10/24 04:05:10;;;;;;;19.98;1.55;;;14.50;99.90;;;;;;5097585;28;20052;-69
2022/10/24 04:07:36;;;;;;;16.00;2.25;;;14.50;99.90;;;;;;5078548;28;20499;-68
2022/10/24 04:10:02;;;;;;;18.00;3.53;;;14.50;99.90;;;;;;5088152;28;20048;-69
2022/10/24 04:12:28;;;;;;;12.05;1.95;;;14.50;99.90;;;;;;5061062;28;20431;-69
2022/10/24 04:14:54;;;;;;;5.63;1.77;;;14.50;99.90;;;;;;5100097;28;20100;-69
2022/10/24 04:17:19;;;;;;;8.43;1.95;;;14.50;99.90;;;;;;5086275;28;20053;-69
2022/10/24 04:19:45;;;;;;;8.68;1.88;;;14.50;99.90;;;;;;5067066;28;20090;-69
2022/10/24 04:22:11;;;;;;;12.60;1.77;;;14.50;99.90;;;;;;5065940;28;20052;-69
2022/10/24 04:24:38;;;;;;;13.02;2.17;;;14.50;99.90;;;;;;5064483;28;20032;-69
2022/10/24 04:27:05;;;;;;;6.07;1.88;;;14.40;99.90;;;;;;5073248;28;20051;-69
2022/10/24 04:29:31;;;;;;;6.32;1.73;;;14.40;99.90;;;;;;5069192;28;20044;-69
2022/10/24 04:31:57;;;;;;;6.18;2.00;;;14.40;99.90;;;;;;5075719;28;20052;-69
2022/10/24 04:34:22;;;;;;;12.68;1.75;;;14.40;99.90;;;;;;5097952;28;20052;-69
2022/10/24 04:36:48;;;;;;;13.25;1.63;;;14.40;99.90;;;;;;5100074;28;20479;-69
2022/10/24 04:39:14;;;;;;;7.20;1.70;;;14.40;99.90;;;;;;5086491;28;20079;-69
2022/10/24 04:41:39;;;;;;;9.18;1.80;;;14.40;99.90;;;;;;5067740;28;20055;-68
2022/10/24 04:44:05;;;;;;;8.25;1.80;;;14.30;99.90;;;;;;5089546;28;20056;-69
2022/10/24 04:46:31;;;;;;;9.40;1.58;;;14.30;99.90;;;;;;5060929;28;20443;-69
2022/10/24 04:48:57;;;;;;;9.82;2.13;;;14.30;99.90;;;;;;5099967;28;20041;-68
2022/10/24 04:51:22;;;;;;;10.50;1.77;;;14.30;99.90;;;;;;5075549;28;20117;-69
2022/10/24 04:53:49;;;;;;;8.35;1.33;;;14.30;99.90;;;;;;5095518;28;20074;-70
2022/10/24 04:56:15;;;;;;;7.18;1.30;;;14.30;99.90;;;;;;5097640;28;20052;-69
2022/10/24 04:58:40;;;;;;;3.97;1.35;;;14.30;99.90;;;;;;5099308;28;20051;-69
2022/10/24 05:01:06;;;;;;;9.43;1.75;;;14.20;99.90;;;;;;5099236;28;20110;-69
2022/10/24 05:03:32;;;;;;;6.85;1.83;;;14.20;99.90;;;;;;5048080;28;20123;-68
2022/10/24 05:05:58;;;;;;;12.52;2.10;;;14.20;99.90;;;;;;5099296;28;20040;-69
2022/10/24 05:08:23;;;;;;;7.05;1.65;;;14.20;99.90;;;;;;5097149;28;20080;-69
2022/10/24 05:10:49;;;;;;;3.95;1.10;;;14.20;99.90;;;;;;5093357;28;20052;-69
2022/10/24 05:13:15;;;;;;;14.18;1.45;;;14.20;99.90;;;;;;5089999;28;20048;-69
2022/10/24 05:15:41;;;;;;;12.02;1.88;;;14.20;99.90;;;;;;5050231;28;20040;-69
2022/10/24 05:18:07;;;;;;;12.57;1.70;;;14.20;99.90;;;;;;5098737;28;20137;-69
2022/10/24 05:20:33;;;;;;;5.60;1.75;;;14.10;99.90;;;;;;5072916;28;20050;-69
2022/10/24 05:22:58;;;;;;;11.70;1.60;;;14.10;99.90;;;;;;5067119;28;20129;-69
2022/10/24 05:25:24;;;;;;;8.68;1.70;;;14.10;99.90;;;;;;5062970;28;20372;-69
2022/10/24 05:27:50;;;;;;;7.40;1.70;;;14.00;99.90;;;;;;5067273;28;20041;-69
2022/10/24 05:30:15;;;;;;;11.10;1.58;;;14.00;99.90;;;;;;5086649;28;20487;-68
2022/10/24 05:32:41;;;;;;;8.93;1.50;;;14.00;99.90;;;;;;5048280;28;20491;-69
2022/10/24 05:35:08;;;;;;;6.82;1.23;;;14.00;99.90;;;;;;5063814;28;20048;-69
2022/10/24 05:37:33;;;;;;;8.25;1.70;;;14.00;99.90;;;;;;5064722;28;20049;-69
2022/10/24 05:39:59;;;;;;;5.30;1.55;;;14.00;99.90;;;;;;5097856;28;20504;-69
2022/10/24 05:42:25;;;;;;;6.88;1.30;;;14.00;99.90;;;;;;5063546;28;20055;-69
2022/10/24 05:44:51;;;;;;;3.72;0.90;;;14.00;99.90;;;;;;5099086;28;20075;-69
2022/10/24 05:47:16;;;;;;;8.43;1.35;;;14.00;99.90;;;;;;5063964;28;20032;-69
2022/10/24 05:49:42;;;;;;;8.57;1.30;;;14.00;99.90;;;;;;5093021;28;20127;-69
2022/10/24 05:52:08;;;;;;;10.75;1.50;;;14.10;99.90;;;;;;5068130;28;20458;-69
2022/10/24 05:54:33;;;;;;;7.85;1.48;;;14.20;99.90;;;;;;5064112;28;20037;-73
2022/10/24 05:56:59;;;;;;;8.90;0.90;;;14.20;99.90;;;;;;5060572;28;20044;-68
2022/10/24 05:59:25;;;;;;;5.78;1.05;;;14.10;99.90;;;;;;5060932;28;20105;-69
2022/10/24 06:01:50;;;;;;;4.30;1.20;;;14.20;99.90;;;;;;5074321;28;20049;-69
2022/10/24 06:04:16;;;;;;;9.32;1.65;;;14.20;99.90;;;;;;5061114;28;20037;-69
2022/10/24 06:06:43;;;;;;;6.70;1.20;;;14.20;99.90;;;;;;5084135;28;20368;-68
2022/10/24 06:09:10;;;;;;;7.00;1.10;;;14.20;99.90;;;;;;5037179;28;20429;-69
2022/10/24 06:11:36;;;;;;;5.57;1.73;;;14.20;99.90;;;;;;5081372;28;20037;-68
2022/10/24 06:14:04;;;;;;;5.25;1.20;;;14.20;99.90;;;;;;5056673;28;20039;-69
2022/10/24 06:16:32;;;;;;;9.20;1.48;;;14.10;99.90;;;;;;5077515;28;20048;-69
2022/10/24 06:18:58;;;;;;;7.30;1.10;;;14.00;99.90;;;;;;5059690;28;20131;-68
2022/10/24 06:21:24;;;;;;;11.95;1.42;;;14.00;99.90;;;;;;5056604;28;20044;-69
2022/10/24 06:23:50;;;;;;;10.07;1.42;;;13.90;99.90;;;;;;5064690;28;20045;-69
2022/10/24 06:26:16;;;;;;;12.35;1.33;;;13.90;99.90;;;;;;5052918;28;20052;-69
2022/10/24 06:28:42;;;;;;;7.22;1.20;;;13.80;99.90;;;;;;5083842;28;20036;-69
2022/10/24 06:31:11;;;;;;;7.43;1.80;;;13.90;99.90;;;;;;5052486;28;20072;-69
2022/10/24 06:33:37;;;;;;;13.98;1.60;;;13.90;99.90;;;;;;5083088;28;20401;-69
2022/10/24 06:36:04;;;;;;;5.47;1.10;;;13.90;99.90;;;;;;5054583;28;20963;-69
2022/10/24 06:38:33;;;;;;;9.38;1.08;;;14.00;99.90;;;;;;5062274;28;20395;-69
2022/10/24 06:41:05;;;;;;;4.50;1.30;;;14.00;99.90;;;;;;5062175;28;20090;-69
2022/10/24 06:43:30;;;;;;;8.82;1.48;;;14.00;99.90;;;;;;5050057;28;20809;-69
2022/10/24 06:45:56;;;;;;;4.10;1.35;;;14.00;99.90;;;;;;5068312;28;20040;-69
2022/10/24 06:48:22;;;;;;;6.55;1.08;;;14.00;99.90;;;;;;5065471;28;20044;-69
2022/10/24 06:50:47;;;;;;;7.03;1.05;;;14.00;99.90;;;;;;5062628;28;20147;-69
2022/10/24 06:53:13;;;;;;;9.60;1.35;;;14.10;99.90;;;;;;5064209;28;20048;-68
2022/10/24 06:55:39;;;;;;;7.38;1.23;;;14.10;99.90;;;;;;5080242;28;20130;-69
2022/10/24 06:58:05;;;;;;;8.20;1.40;;;14.10;99.90;;;;;;5049771;28;20235;-69
2022/10/24 07:00:36;;;;;;;5.15;1.10;;;14.20;99.90;;;;;;5055898;28;20052;-69
2022/10/24 07:03:02;;;;;;;4.25;1.08;;;14.20;99.90;;;;;;5087682;28;20479;-69
2022/10/24 07:05:28;;;;;;;7.97;1.20;;;14.30;99.90;;;;;;5094159;28;20052;-68
2022/10/24 07:07:54;;;;;;;4.90;1.60;;;14.30;99.90;;;;;;5082606;28;20036;-69
2022/10/24 07:10:19;;;;;;;3.97;0.95;;;14.30;99.90;;;;;;5093759;28;20596;-69
2022/10/24 07:12:45;;;;;;;8.38;1.27;;;14.30;99.90;;;;;;5067146;28;20045;-68
2022/10/24 07:15:11;;;;;;;1.95;1.10;;;14.30;99.90;;;;;;5063910;28;20522;-68
2022/10/24 07:17:44;;;;;;;5.70;1.13;;;14.30;99.90;;;;;;5060001;28;20521;-69
2022/10/24 07:20:11;;;;;;;3.65;1.02;;;14.40;99.90;;;;;;5060800;28;20049;-68
2022/10/24 07:22:37;;;;;;;3.65;1.10;;;14.40;99.90;;;;;;5058801;28;20044;-69
2022/10/24 07:25:04;;;;;;;7.72;1.27;;;14.40;99.90;;;;;;5066495;28;20048;-68
2022/10/24 07:27:30;;;;;;;8.13;1.10;;;14.40;99.90;;;;;;5065811;28;20040;-68
2022/10/24 07:29:56;;;;;;;7.18;0.93;;;14.40;99.90;;;;;;5067349;28;20037;-69
2022/10/24 07:32:22;;;;;;;8.23;1.20;;;14.50;99.90;;;;;;5060641;28;20560;-68
2022/10/24 07:34:48;;;;;;;5.82;1.00;;;14.50;99.90;;;;;;5055170;28;20072;-68
2022/10/24 07:37:15;;;;;;;9.07;1.48;;;14.70;99.90;;;;;;5065345;28;20095;-69
2022/10/24 07:39:42;;;;;;;6.03;1.00;;;14.70;99.90;;;;;;5057568;28;20049;-68
2022/10/24 07:42:09;;;;;;;6.78;0.80;;;14.80;99.90;;;;;;5073582;28;20452;-68
2022/10/24 07:44:35;;;;;;;4.07;1.45;;;14.90;99.90;;;;;;5060798;28;20616;-67
2022/10/24 07:47:05;;;;;;;4.68;1.27;;;14.90;99.90;;;;;;5083756;28;20123;-69
2022/10/24 07:49:32;;;;;;;4.68;1.20;;;15.00;99.90;;;;;;5061822;28;20518;-69
2022/10/24 07:51:58;;;;;;;6.60;1.13;;;15.00;99.90;;;;;;5064883;28;20116;-69
2022/10/24 07:54:25;;;;;;;11.40;2.13;;;15.10;99.90;;;;;;5064776;28;20152;-68
2022/10/24 07:56:51;;;;;;;9.52;1.48;;;15.10;99.90;;;;;;5061942;28;20407;-68
2022/10/24 07:59:16;;;;;;;4.68;1.13;;;15.20;99.90;;;;;;5086400;28;20107;-69
2022/10/24 08:01:42;;;;;;;5.38;0.90;;;15.30;99.90;;;;;;5060858;28;20044;-69
2022/10/24 08:04:09;;;;;;;6.40;1.55;;;15.40;99.90;;;;;;5063289;28;20040;-68
2022/10/24 08:06:35;;;;;;;10.70;1.63;;;15.50;99.90;;;;;;5062175;28;20075;-69
2022/10/24 08:09:01;;;;;;;7.35;0.88;;;15.60;99.90;;;;;;5060213;28;20499;-68
2022/10/24 08:11:28;;;;;;;6.65;1.48;;;15.70;99.90;;;;;;5061461;28;20049;-68
2022/10/24 08:13:58;;;;;;;9.32;1.23;;;15.70;99.90;;;;;;5055584;28;20552;-69
2022/10/24 08:16:25;;;;;;;6.45;1.50;;;15.70;99.90;;;;;;5079918;28;20131;-69
2022/10/24 08:18:52;;;;;;;9.13;1.42;;;15.70;99.90;;;;;;5049750;28;20128;-69
2022/10/24 08:21:20;;;;;;;4.93;1.00;;;15.70;99.90;;;;;;5051453;28;20108;-69
2022/10/24 08:23:48;;;;;;;4.22;1.02;;;15.80;99.90;;;;;;5049322;28;20044;-69
2022/10/24 08:26:18;;;;;;;8.45;1.50;;;15.90;99.90;;;;;;5076448;28;20037;-68
2022/10/24 08:28:45;;;;;;;11.40;1.07;;;15.90;99.90;;;;;;5050651;28;20452;-69
2022/10/24 08:31:14;;;;;;;6.28;1.30;;;15.90;99.90;;;;;;5054211;28;20064;-69
2022/10/24 08:33:40;;;;;;;5.85;1.25;;;15.90;99.90;;;;;;5080864;28;20075;-69
2022/10/24 08:36:17;;;;;;;6.07;0.98;;;15.90;99.90;;;;;;5069047;28;20381;-68
2022/10/24 08:38:42;;;;;;;1.45;0.60;;;15.90;99.90;;;;;;5079363;28;20485;-68
2022/10/24 08:41:17;;;;;;;11.00;1.67;;;15.90;99.90;;;;;;5051607;28;20041;-68
2022/10/24 08:43:43;;;;;;;9.68;1.50;;;16.00;99.90;;;;;;5050743;28;20053;-69
2022/10/24 08:46:33;;;;;;;1.63;0.73;;;16.00;99.90;;;;;;5067638;28;20383;-69
2022/10/24 08:49:24;;;;;;;22.70;2.10;;;16.10;99.90;;;;;;5046540;28;20495;-68
2022/10/24 08:51:55;;;;;;;11.40;1.50;;;16.10;99.90;;;;;;5047450;28;20052;-69
2022/10/24 08:54:24;;;;;;;5.03;0.95;;;16.10;99.90;;;;;;5077420;28;20045;-69
2022/10/24 08:56:53;;;;;;;4.88;1.40;;;16.20;99.90;;;;;;5068159;28;20046;-68
2022/10/24 08:59:19;;;;;;;10.33;2.50;;;16.20;99.90;;;;;;5055298;28;20063;-68
2022/10/24 09:01:56;;;;;;;6.55;1.17;;;16.20;99.90;;;;;;5053952;28;20047;-69
2022/10/24 09:04:25;;;;;;;6.47;1.08;;;16.10;99.90;;;;;;5079058;28;20049;-69
2022/10/24 09:06:53;;;;;;;10.70;2.15;;;16.20;99.90;;;;;;5084781;28;20044;-69
2022/10/24 09:09:28;;;;;;;4.30;1.02;;;16.10;99.90;;;;;;5086291;28;20102;-69
2022/10/24 09:12:07;;;;;;;5.80;0.90;;;16.10;99.90;;;;;;5080649;28;20498;-69
2022/10/24 09:14:36;;;;;;;10.30;1.30;;;16.00;99.90;;;;;;5060137;28;20049;-69
2022/10/24 09:17:31;;;;;;;10.10;1.83;;;16.00;99.90;;;;;;5062493;28;20039;-69
2022/10/24 09:20:21;;;;;;;7.05;1.45;;;16.00;99.90;;;;;;5050329;28;20869;-69
2022/10/24 09:22:47;;;;;;;6.40;1.70;;;15.90;99.90;;;;;;5066854;28;20568;-69
2022/10/24 09:25:21;;;;;;;11.80;1.67;;;15.90;99.90;;;;;;5099574;28;20081;-69
2022/10/24 09:27:47;;;;;;;7.38;1.50;;;15.90;99.90;;;;;;5069268;28;20066;-69
2022/10/24 09:30:31;;;;;;;6.35;1.45;;;15.90;99.90;;;;;;5066933;28;20040;-69
2022/10/24 09:33:01;;;;;;;7.57;1.70;;;15.90;99.90;;;;;;5097042;28;20048;-69
2022/10/24 09:35:29;;;;;;;8.18;1.15;;;15.90;99.90;;;;;;5099002;28;20056;-69
2022/10/24 09:38:18;;;;;;;6.65;1.08;;;16.00;99.90;;;;;;5068526;28;20443;-69
2022/10/24 09:40:50;;;;;;;16.70;1.52;;;16.00;99.90;;;;;;5063021;28;20053;-69
2022/10/24 09:43:36;;;;;;;8.20;1.70;;;16.00;99.90;;;;;;5082704;28;20060;-69
2022/10/24 09:46:34;;;;;;;19.75;2.10;;;16.10;99.90;;;;;;5046313;28;20041;-69
2022/10/24 09:49:13;;;;;;;10.38;1.77;;;16.10;99.90;;;;;;5075621;28;20076;-69
2022/10/24 09:51:44;;;;;;;8.68;2.38;;;16.10;99.90;;;;;;5066353;28;20114;-69
2022/10/24 09:54:19;;;;;;;10.55;1.60;;;16.10;99.90;;;;;;5055187;28;20045;-69
2022/10/24 09:56:47;;;;;;;8.65;1.75;;;16.10;99.90;;;;;;5083757;28;20099;-69
2022/10/24 09:59:33;;;;;;;6.78;2.00;;;16.10;99.90;;;;;;5092381;28;20049;-69
2022/10/24 10:02:24;;;;;;;6.28;1.33;;;16.10;99.90;;;;;;5066708;28;20036;-68
2022/10/24 10:05:02;;;;;;;7.78;1.40;;;16.20;99.90;;;;;;5068479;28;20044;-69
2022/10/24 10:07:39;;;;;;;4.63;1.02;;;16.30;99.90;;;;;;5055809;28;20059;-68
2022/10/24 10:10:25;;;;;;;6.60;1.27;;;16.40;99.90;;;;;;5069880;28;20507;-74
2022/10/24 10:13:03;;;;;;;7.00;0.85;;;16.60;99.90;;;;;;5068427;28;20047;-69
2022/10/24 10:15:31;;;;;;;9.05;2.88;;;16.80;99.90;;;;;;5068345;28;20045;-68
2022/10/24 10:18:01;;;;;;;8.23;1.52;;;16.80;99.90;;;;;;5101734;28;20048;-69
2022/10/24 10:20:39;;;;;;;7.68;1.35;;;16.80;99.90;;;;;;5079266;28;20048;-69
2022/10/24 10:23:27;;;;;;;5.03;1.20;;;16.80;99.90;;;;;;5068578;28;20517;-68
2022/10/24 10:26:20;;;;;;;5.55;1.10;;;16.80;99.90;;;;;;5102270;28;20048;-69
2022/10/24 10:28:58;;;;;;;11.93;1.58;;;16.90;99.90;;;;;;5083332;28;20485;-69
2022/10/24 10:31:52;;;;;;;6.53;1.25;;;16.90;99.90;;;;;;5102217;28;20056;-69
2022/10/24 10:34:24;;;;;;;7.63;1.05;;;16.90;99.90;;;;;;5064287;28;20498;-67
2022/10/24 10:37:23;;;;;;;8.95;1.83;;;16.80;99.90;;;;;;5101108;28;20482;-68
2022/10/24 10:40:44;;;;;;;6.97;1.17;;;16.80;99.90;;;;;;5050192;28;20040;-68
2022/10/24 10:43:23;;;;;;;4.10;1.20;;;16.80;99.90;;;;;;5056525;28;20079;-68
2022/10/24 10:45:57;;;;;;;9.45;1.00;;;16.80;99.90;;;;;;5067885;28;20037;-68
2022/10/24 10:48:41;;;;;;;8.82;1.40;;;16.80;99.90;;;;;;5069686;28;20862;-68
2022/10/24 10:51:21;;;;;;;9.50;1.17;;;16.80;99.90;;;;;;5068492;28;20390;-68
2022/10/24 10:54:22;;;;;;;8.95;1.35;;;16.80;99.90;;;;;;5061232;28;20046;-68
2022/10/24 10:56:53;;;;;;;3.60;1.00;;;17.00;99.90;;;;;;5069219;28;20033;-68
2022/10/24 10:59:41;;;;;;;3.90;0.80;;;17.10;99.90;;;;;;5100294;28;20545;-68
2022/10/24 11:02:34;;;;;;;2.83;0.88;;;17.20;99.90;;;;;;5064247;28;20179;-68
2022/10/24 11:05:09;;;;;;;2.60;0.80;;;17.20;99.90;;;;;;5063162;28;20041;-67
2022/10/24 11:07:57;;;;;;;12.93;1.33;;;17.30;99.90;;;;;;5059122;28;20490;-69
2022/10/24 11:10:30;;;;;;;5.90;0.93;;;17.60;99.90;;;;;;5064852;28;20120;-68
2022/10/24 11:12:59;;;;;;;3.90;0.85;;;17.80;99.90;;;;;;5067198;28;20070;-68
2022/10/24 11:15:33;;;;;;;6.85;1.02;;;17.90;99.90;;;;;;5068655;28;20040;-68
2022/10/24 11:18:20;;;;;;;8.27;1.67;;;17.80;99.90;;;;;;5068380;28;20371;-69
2022/10/24 11:21:17;;;;;;;4.28;1.15;;;17.60;99.90;;;;;;5099510;28;20151;-68
2022/10/24 11:24:05;;;;;;;4.00;0.90;;;17.50;99.90;;;;;;5072221;28;20066;-68
2022/10/24 11:27:02;;;;;;;4.60;1.00;;;17.30;99.90;;;;;;5063662;28;20036;-69
2022/10/24 11:29:43;;;;;;;11.95;1.45;;;17.30;99.90;;;;;;5056384;28;20622;-69
2022/10/24 11:32:25;;;;;;;7.35;1.42;;;17.10;99.90;;;;;;5054755;28;20044;-69
2022/10/24 11:34:57;;;;;;;7.43;0.98;;;17.10;99.90;;;;;;5077819;28;20106;-68
2022/10/24 11:37:37;;;;;;;4.72;0.82;;;17.10;99.90;;;;;;5055673;28;20119;-68
2022/10/24 11:40:11;;;;;;;;;;;17.10;99.90;;;;;;5068003;28;20375;-68
2022/10/24 11:42:41;;;;;;;6.43;1.95;;;17.10;99.90;;;;;;5062638;28;20022;-68
2022/10/24 11:45:11;;;;;;;3.22;0.80;;;17.00;99.90;;;;;;5045190;28;20040;-69
2022/10/24 11:47:37;;;;;;;7.75;1.25;;;17.00;99.90;;;;;;5065425;28;20052;-68
2022/10/24 11:50:20;;;;;;;3.42;1.02;;;17.00;99.90;;;;;;5063919;28;20036;-68
2022/10/24 11:52:51;;;;;;;5.95;1.20;;;16.90;99.90;;;;;;5050244;28;20453;-68
2022/10/24 11:55:20;;;;;;;9.30;1.27;;;16.90;99.90;;;;;;5077612;28;20060;-69
2022/10/24 11:57:51;;;;;;;8.10;1.00;;;16.90;99.90;;;;;;5100229;28;20080;-68
2022/10/24 12:00:51;;;;;;;5.55;1.08;;;16.90;99.90;;;;;;5064733;28;20098;-68
2022/10/24 12:03:41;;;;;;;12.02;1.42;;;16.80;99.90;;;;;;5061359;28;20101;-69
2022/10/24 12:06:21;;;;;;;7.13;1.10;;;16.80;99.90;;;;;;5092670;28;20087;-69
2022/10/24 12:08:59;;;;;;;3.55;1.10;;;16.70;99.90;;;;;;5065100;28;20036;-68
2022/10/24 12:11:40;;;;;;;4.97;1.27;;;16.70;99.90;;;;;;5055751;28;20441;-68
2022/10/24 12:14:29;;;;;;;5.25;1.10;;;16.70;99.90;;;;;;5100078;28;20063;-68
2022/10/24 12:17:24;;;;;;;6.60;1.13;;;16.60;99.90;;;;;;5075043;28;20127;-68
2022/10/24 12:19:51;;;;;;;3.53;0.80;;;16.70;99.90;;;;;;5066411;28;20084;-68
2022/10/24 12:22:26;;;;;;;8.10;1.27;;;16.60;99.90;;;;;;5099121;28;20087;-68
2022/10/24 12:25:13;;;;;;;5.32;0.98;;;16.60;99.90;;;;;;5066961;28;20048;-68
2022/10/24 12:27:40;;;;;;;5.45;0.88;;;16.60;99.90;;;;;;5095645;28;20115;-67
2022/10/24 12:30:09;;;;;;;5.30;1.27;;;16.60;99.90;;;;;;5064647;28;20044;-67
2022/10/24 12:32:45;;;;;;;9.90;1.27;;;16.60;99.90;;;;;;5068234;28;20039;-68
2022/10/24 12:35:26;;;;;;;5.55;1.00;;;16.60;99.90;;;;;;5097805;28;20062;-67
2022/10/24 12:37:56;;;;;;;6.10;1.35;;;16.50;99.90;;;;;;5062839;28;20123;-68
2022/10/24 12:40:43;;;;;;;11.38;1.35;;;16.50;99.90;;;;;;5067410;28;20108;-68
2022/10/24 12:43:28;;;;;;;3.35;0.88;;;16.70;99.90;;;;;;5065053;28;20062;-68
2022/10/24 12:45:55;;;;;;;4.97;0.75;;;16.70;99.90;;;;;;5068580;28;20408;-68
2022/10/24 12:48:35;;;;;;;5.38;1.00;;;16.70;99.90;;;;;;5062563;28;20342;-67
2022/10/24 12:51:25;;;;;;;5.88;1.20;;;16.70;99.90;;;;;;5052170;28;20395;-68
2022/10/24 12:54:12;;;;;;;4.57;1.05;;;16.60;99.90;;;;;;5049492;28;20040;-68
2022/10/24 12:56:52;;;;;;;6.47;1.10;;;16.90;99.90;;;;;;5050875;28;20044;-68
2022/10/24 12:59:30;;;;;;;4.93;1.13;;;17.00;99.90;;;;;;5065673;28;20048;-68
2022/10/24 13:02:14;;;;;;;2.42;0.65;;;17.10;99.90;;;;;;5053685;28;20060;-68
2022/10/24 13:04:46;;;;;;;6.38;1.00;;;17.20;99.90;;;;;;5077735;28;20048;-68
2022/10/24 13:07:43;;;;;;;3.75;1.00;;;17.40;99.90;;;;;;5060404;28;20506;-68
2022/10/24 13:10:14;;;;;;;6.40;0.80;;;17.60;99.90;;;;;;5063743;28;20048;-68